sensor_id;sensor_type;location;lat;lon;timestamp;temperature;humidity
3037;DHT22;1528;52.550;13.408;2022-09-27T00:00:09;14.70;25.40
3037;DHT22;1528;52.550;13.408;2022-09-27T00:02:55;14.70;24.90
3037;DHT22;1528;52.550;13.408;2022-09-27T00:05:41;14.70;25.30
3037;DHT22;1528;52.550;13.408;2022-09-27T00:08:26;14.50;25.40
3037;DHT22;1528;52.550;13.408;2022-09-27T00:11:22;14.50;26.00
3037;DHT22;1528;52.550;13.408;2022-09-27T00:14:11;14.60;25.30
3037;DHT22;1528;52.550;13.408;2022-09-27T00:16:57;14.60;25.50
3037;DHT22;1528;52.550;13.408;2022-09-27T00:19:43;14.60;26.10
3037;DHT22;1528;52.550;13.408;2022-09-27T00:22:28;14.60;25.40
3037;DHT22;1528;52.550;13.408;2022-09-27T00:25:15;14.70;25.30
3037;DHT22;1528;52.550;13.408;2022-09-27T00:28:02;14.70;25.50
3037;DHT22;1528;52.550;13.408;2022-09-27T00:30:47;14.70;25.10
3037;DHT22;1528;52.550;13.408;2022-09-27T00:33:32;14.70;25.40
3037;DHT22;1528;52.550;13.408;2022-09-27T00:36:19;14.60;25.40
3037;DHT22;1528;52.550;13.408;2022-09-27T00:39:05;14.60;26.00
3037;DHT22;1528;52.550;13.408;2022-09-27T00:41:50;14.50;25.60
3037;DHT22;1528;52.550;13.408;2022-09-27T00:45:00;14.60;26.00
3037;DHT22;1528;52.550;13.408;2022-09-27T00:47:50;14.50;25.80
3037;DHT22;1528;52.550;13.408;2022-09-27T00:50:42;14.60;25.50
3037;DHT22;1528;52.550;13.408;2022-09-27T00:53:32;14.50;25.50
3037;DHT22;1528;52.550;13.408;2022-09-27T00:56:23;14.60;25.20
3037;DHT22;1528;52.550;13.408;2022-09-27T00:59:13;14.60;25.20
3037;DHT22;1528;52.550;13.408;2022-09-27T01:02:02;14.50;25.40
3037;DHT22;1528;52.550;13.408;2022-09-27T01:04:49;14.50;25.30
3037;DHT22;1528;52.550;13.408;2022-09-27T01:07:35;14.60;25.20
3037;DHT22;1528;52.550;13.408;2022-09-27T01:10:22;14.50;25.10
3037;DHT22;1528;52.550;13.408;2022-09-27T01:13:15;14.50;25.30
3037;DHT22;1528;52.550;13.408;2022-09-27T01:16:07;14.40;25.50
3037;DHT22;1528;52.550;13.408;2022-09-27T01:19:06;14.40;25.60
3037;DHT22;1528;52.550;13.408;2022-09-27T01:21:57;14.40;25.40
3037;DHT22;1528;52.550;13.408;2022-09-27T01:24:55;14.40;25.60
3037;DHT22;1528;52.550;13.408;2022-09-27T01:31:03;14.40;25.40
3037;DHT22;1528;52.550;13.408;2022-09-27T01:34:00;14.50;25.30
3037;DHT22;1528;52.550;13.408;2022-09-27T01:36:51;14.40;25.40
3037;DHT22;1528;52.550;13.408;2022-09-27T01:39:45;14.40;25.80
3037;DHT22;1528;52.550;13.408;2022-09-27T01:42:38;14.50;25.30
3037;DHT22;1528;52.550;13.408;2022-09-27T01:45:27;14.50;25.40
3037;DHT22;1528;52.550;13.408;2022-09-27T01:48:19;14.50;25.40
3037;DHT22;1528;52.550;13.408;2022-09-27T01:51:08;14.40;25.40
3037;DHT22;1528;52.550;13.408;2022-09-27T01:53:58;14.40;25.30
3037;DHT22;1528;52.550;13.408;2022-09-27T01:56:48;14.40;25.40
3037;DHT22;1528;52.550;13.408;2022-09-27T01:59:39;14.50;25.00
3037;DHT22;1528;52.550;13.408;2022-09-27T02:02:28;14.50;24.80
3037;DHT22;1528;52.550;13.408;2022-09-27T02:05:18;14.50;25.10
3037;DHT22;1528;52.550;13.408;2022-09-27T02:08:09;14.50;24.90
3037;DHT22;1528;52.550;13.408;2022-09-27T02:10:59;14.60;25.30
3037;DHT22;1528;52.550;13.408;2022-09-27T02:13:51;14.50;24.90
3037;DHT22;1528;52.550;13.408;2022-09-27T02:16:45;14.50;25.00
3037;DHT22;1528;52.550;13.408;2022-09-27T02:19:37;14.60;25.10
3037;DHT22;1528;52.550;13.408;2022-09-27T02:22:32;14.60;24.90
3037;DHT22;1528;52.550;13.408;2022-09-27T02:25:23;14.50;25.20
3037;DHT22;1528;52.550;13.408;2022-09-27T02:28:16;14.50;24.90
3037;DHT22;1528;52.550;13.408;2022-09-27T02:31:07;14.50;24.90
3037;DHT22;1528;52.550;13.408;2022-09-27T02:33:55;14.60;24.90
3037;DHT22;1528;52.550;13.408;2022-09-27T02:36:43;14.50;24.90
3037;DHT22;1528;52.550;13.408;2022-09-27T02:39:30;14.60;25.00
3037;DHT22;1528;52.550;13.408;2022-09-27T02:42:15;14.70;24.80
3037;DHT22;1528;52.550;13.408;2022-09-27T02:45:02;14.50;25.00
3037;DHT22;1528;52.550;13.408;2022-09-27T02:48:01;14.50;25.60
3037;DHT22;1528;52.550;13.408;2022-09-27T02:51:00;14.70;25.00
3037;DHT22;1528;52.550;13.408;2022-09-27T02:53:59;14.60;25.10
3037;DHT22;1528;52.550;13.408;2022-09-27T02:56:59;14.70;24.70
3037;DHT22;1528;52.550;13.408;2022-09-27T02:59:51;14.70;25.20
3037;DHT22;1528;52.550;13.408;2022-09-27T03:02:50;14.70;25.10
3037;DHT22;1528;52.550;13.408;2022-09-27T03:05:40;14.70;25.10
3037;DHT22;1528;52.550;13.408;2022-09-27T03:08:27;14.70;25.40
3037;DHT22;1528;52.550;13.408;2022-09-27T03:11:12;14.70;25.20
3037;DHT22;1528;52.550;13.408;2022-09-27T03:13:59;14.70;25.30
3037;DHT22;1528;52.550;13.408;2022-09-27T03:16:45;14.70;24.90
3037;DHT22;1528;52.550;13.408;2022-09-27T03:19:30;14.70;25.20
3037;DHT22;1528;52.550;13.408;2022-09-27T03:22:16;14.70;25.70
3037;DHT22;1528;52.550;13.408;2022-09-27T03:25:02;14.70;25.20
3037;DHT22;1528;52.550;13.408;2022-09-27T03:27:48;14.80;24.60
3037;DHT22;1528;52.550;13.408;2022-09-27T03:30:35;14.80;24.70
3037;DHT22;1528;52.550;13.408;2022-09-27T03:33:20;14.70;24.80
3037;DHT22;1528;52.550;13.408;2022-09-27T03:36:06;14.90;24.60
3037;DHT22;1528;52.550;13.408;2022-09-27T03:38:52;14.70;24.80
3037;DHT22;1528;52.550;13.408;2022-09-27T03:41:37;14.70;25.40
3037;DHT22;1528;52.550;13.408;2022-09-27T03:44:23;14.70;24.60
3037;DHT22;1528;52.550;13.408;2022-09-27T03:47:10;14.70;24.70
3037;DHT22;1528;52.550;13.408;2022-09-27T03:49:55;14.80;24.90
3037;DHT22;1528;52.550;13.408;2022-09-27T03:52:42;14.80;25.00
3037;DHT22;1528;52.550;13.408;2022-09-27T03:55:28;14.80;25.10
3037;DHT22;1528;52.550;13.408;2022-09-27T03:58:13;14.90;25.10
3037;DHT22;1528;52.550;13.408;2022-09-27T04:00:59;14.90;26.00
3037;DHT22;1528;52.550;13.408;2022-09-27T04:03:45;14.70;26.00
3037;DHT22;1528;52.550;13.408;2022-09-27T04:06:31;14.60;26.20
3037;DHT22;1528;52.550;13.408;2022-09-27T04:09:17;14.70;26.10
3037;DHT22;1528;52.550;13.408;2022-09-27T04:12:03;14.60;26.90
3037;DHT22;1528;52.550;13.408;2022-09-27T04:14:49;14.60;26.60
3037;DHT22;1528;52.550;13.408;2022-09-27T04:17:35;14.60;27.20
3037;DHT22;1528;52.550;13.408;2022-09-27T04:20:22;14.60;27.20
3037;DHT22;1528;52.550;13.408;2022-09-27T04:23:08;14.50;27.10
3037;DHT22;1528;52.550;13.408;2022-09-27T04:25:53;14.50;27.00
3037;DHT22;1528;52.550;13.408;2022-09-27T04:28:39;14.50;27.40
3037;DHT22;1528;52.550;13.408;2022-09-27T04:31:25;14.50;27.70
3037;DHT22;1528;52.550;13.408;2022-09-27T04:34:10;14.40;27.90
3037;DHT22;1528;52.550;13.408;2022-09-27T04:36:57;14.60;27.10
3037;DHT22;1528;52.550;13.408;2022-09-27T04:39:42;14.50;27.90
3037;DHT22;1528;52.550;13.408;2022-09-27T04:42:27;14.50;27.70
3037;DHT22;1528;52.550;13.408;2022-09-27T04:45:13;14.50;28.00
3037;DHT22;1528;52.550;13.408;2022-09-27T04:47:58;14.30;28.70
3037;DHT22;1528;52.550;13.408;2022-09-27T04:50:44;14.30;28.90
3037;DHT22;1528;52.550;13.408;2022-09-27T04:53:31;14.30;30.20
3037;DHT22;1528;52.550;13.408;2022-09-27T04:56:16;14.40;30.00
3037;DHT22;1528;52.550;13.408;2022-09-27T04:59:02;14.40;30.10
3037;DHT22;1528;52.550;13.408;2022-09-27T05:01:48;14.30;30.80
3037;DHT22;1528;52.550;13.408;2022-09-27T05:04:33;14.30;31.30
3037;DHT22;1528;52.550;13.408;2022-09-27T05:07:19;14.30;31.20
3037;DHT22;1528;52.550;13.408;2022-09-27T05:10:07;14.20;32.80
3037;DHT22;1528;52.550;13.408;2022-09-27T05:12:52;14.20;32.30
3037;DHT22;1528;52.550;13.408;2022-09-27T05:15:38;14.20;31.50
3037;DHT22;1528;52.550;13.408;2022-09-27T05:18:23;14.10;32.60
3037;DHT22;1528;52.550;13.408;2022-09-27T05:21:09;14.10;32.50
3037;DHT22;1528;52.550;13.408;2022-09-27T05:23:55;14.10;33.60
3037;DHT22;1528;52.550;13.408;2022-09-27T05:26:42;14.10;32.40
3037;DHT22;1528;52.550;13.408;2022-09-27T05:29:28;14.10;32.20
3037;DHT22;1528;52.550;13.408;2022-09-27T05:32:14;14.00;33.10
3037;DHT22;1528;52.550;13.408;2022-09-27T05:34:59;14.10;33.90
3037;DHT22;1528;52.550;13.408;2022-09-27T05:37:50;14.10;35.60
3037;DHT22;1528;52.550;13.408;2022-09-27T05:40:36;13.90;34.00
3037;DHT22;1528;52.550;13.408;2022-09-27T05:43:26;13.90;35.60
3037;DHT22;1528;52.550;13.408;2022-09-27T05:46:12;13.80;36.20
3037;DHT22;1528;52.550;13.408;2022-09-27T05:48:57;13.80;37.00
3037;DHT22;1528;52.550;13.408;2022-09-27T05:51:43;13.80;36.90
3037;DHT22;1528;52.550;13.408;2022-09-27T05:54:29;13.80;37.00
3037;DHT22;1528;52.550;13.408;2022-09-27T05:57:14;13.90;37.20
3037;DHT22;1528;52.550;13.408;2022-09-27T06:00:02;13.90;37.00
3037;DHT22;1528;52.550;13.408;2022-09-27T06:02:52;13.90;37.30
3037;DHT22;1528;52.550;13.408;2022-09-27T06:05:39;14.00;36.40
3037;DHT22;1528;52.550;13.408;2022-09-27T06:08:25;14.00;38.10
3037;DHT22;1528;52.550;13.408;2022-09-27T06:11:11;14.00;36.00
3037;DHT22;1528;52.550;13.408;2022-09-27T06:13:57;13.90;37.30
3037;DHT22;1528;52.550;13.408;2022-09-27T06:16:43;14.00;36.20
3037;DHT22;1528;52.550;13.408;2022-09-27T06:19:29;14.00;37.00
3037;DHT22;1528;52.550;13.408;2022-09-27T06:22:15;14.00;37.70
3037;DHT22;1528;52.550;13.408;2022-09-27T06:25:00;14.10;36.30
3037;DHT22;1528;52.550;13.408;2022-09-27T06:27:46;14.20;35.30
3037;DHT22;1528;52.550;13.408;2022-09-27T06:30:32;14.10;36.60
3037;DHT22;1528;52.550;13.408;2022-09-27T06:33:19;14.10;36.70
3037;DHT22;1528;52.550;13.408;2022-09-27T06:36:06;14.10;36.10
3037;DHT22;1528;52.550;13.408;2022-09-27T06:38:52;13.90;37.40
3037;DHT22;1528;52.550;13.408;2022-09-27T06:41:37;14.00;36.70
3037;DHT22;1528;52.550;13.408;2022-09-27T06:44:23;13.90;37.20
3037;DHT22;1528;52.550;13.408;2022-09-27T06:47:09;14.00;37.50
3037;DHT22;1528;52.550;13.408;2022-09-27T06:49:56;14.00;38.80
3037;DHT22;1528;52.550;13.408;2022-09-27T06:52:46;14.00;38.20
3037;DHT22;1528;52.550;13.408;2022-09-27T06:55:32;14.20;38.40
3037;DHT22;1528;52.550;13.408;2022-09-27T06:58:18;14.20;37.50
3037;DHT22;1528;52.550;13.408;2022-09-27T07:01:22;14.40;35.80
3037;DHT22;1528;52.550;13.408;2022-09-27T07:04:11;14.10;37.80
3037;DHT22;1528;52.550;13.408;2022-09-27T07:06:58;14.00;37.80
3037;DHT22;1528;52.550;13.408;2022-09-27T07:09:44;13.80;38.10
3037;DHT22;1528;52.550;13.408;2022-09-27T07:12:29;14.10;37.50
3037;DHT22;1528;52.550;13.408;2022-09-27T07:15:15;14.20;37.70
3037;DHT22;1528;52.550;13.408;2022-09-27T07:18:01;14.10;38.90
3037;DHT22;1528;52.550;13.408;2022-09-27T07:20:47;14.20;38.40
3037;DHT22;1528;52.550;13.408;2022-09-27T07:23:36;14.20;39.30
3037;DHT22;1528;52.550;13.408;2022-09-27T07:26:21;14.30;39.10
3037;DHT22;1528;52.550;13.408;2022-09-27T07:29:07;14.40;37.80
3037;DHT22;1528;52.550;13.408;2022-09-27T07:31:52;14.50;37.90
3037;DHT22;1528;52.550;13.408;2022-09-27T07:34:38;14.50;37.90
3037;DHT22;1528;52.550;13.408;2022-09-27T07:37:23;14.50;37.20
3037;DHT22;1528;52.550;13.408;2022-09-27T07:40:10;14.40;37.80
3037;DHT22;1528;52.550;13.408;2022-09-27T07:42:57;14.40;37.70
3037;DHT22;1528;52.550;13.408;2022-09-27T07:45:42;14.50;36.70
3037;DHT22;1528;52.550;13.408;2022-09-27T07:48:28;14.40;39.70
3037;DHT22;1528;52.550;13.408;2022-09-27T07:51:14;14.50;38.60
3037;DHT22;1528;52.550;13.408;2022-09-27T07:53:59;14.40;38.50
3037;DHT22;1528;52.550;13.408;2022-09-27T07:56:47;14.40;39.30
3037;DHT22;1528;52.550;13.408;2022-09-27T07:59:32;14.50;39.90
3037;DHT22;1528;52.550;13.408;2022-09-27T08:02:18;14.40;38.50
3037;DHT22;1528;52.550;13.408;2022-09-27T08:05:05;14.50;37.50
3037;DHT22;1528;52.550;13.408;2022-09-27T08:07:53;14.60;37.50
3037;DHT22;1528;52.550;13.408;2022-09-27T08:10:40;14.50;37.40
3037;DHT22;1528;52.550;13.408;2022-09-27T08:13:32;14.50;37.90
3037;DHT22;1528;52.550;13.408;2022-09-27T08:16:17;14.40;38.50
3037;DHT22;1528;52.550;13.408;2022-09-27T08:19:03;14.40;37.90
3037;DHT22;1528;52.550;13.408;2022-09-27T08:21:50;14.40;38.30
3037;DHT22;1528;52.550;13.408;2022-09-27T08:24:37;14.40;38.70
3037;DHT22;1528;52.550;13.408;2022-09-27T08:27:23;14.50;38.20
3037;DHT22;1528;52.550;13.408;2022-09-27T08:30:10;14.60;36.80
3037;DHT22;1528;52.550;13.408;2022-09-27T08:32:56;14.60;38.30
3037;DHT22;1528;52.550;13.408;2022-09-27T08:35:42;14.50;38.30
3037;DHT22;1528;52.550;13.408;2022-09-27T08:38:28;14.50;37.20
3037;DHT22;1528;52.550;13.408;2022-09-27T08:41:21;14.50;37.30
3037;DHT22;1528;52.550;13.408;2022-09-27T08:44:14;14.50;38.20
3037;DHT22;1528;52.550;13.408;2022-09-27T08:47:05;14.50;38.50
3037;DHT22;1528;52.550;13.408;2022-09-27T08:49:57;14.50;37.60
3037;DHT22;1528;52.550;13.408;2022-09-27T08:52:45;14.70;37.10
3037;DHT22;1528;52.550;13.408;2022-09-27T08:55:35;14.80;37.30
3037;DHT22;1528;52.550;13.408;2022-09-27T08:58:25;14.80;38.40
3037;DHT22;1528;52.550;13.408;2022-09-27T09:01:14;14.70;38.10
3037;DHT22;1528;52.550;13.408;2022-09-27T09:04:01;14.60;37.20
3037;DHT22;1528;52.550;13.408;2022-09-27T09:06:53;14.70;37.50
3037;DHT22;1528;52.550;13.408;2022-09-27T09:09:50;14.80;37.60
3037;DHT22;1528;52.550;13.408;2022-09-27T09:12:45;14.80;37.30
3037;DHT22;1528;52.550;13.408;2022-09-27T09:15:37;14.80;36.80
3037;DHT22;1528;52.550;13.408;2022-09-27T09:18:49;14.70;36.80
3037;DHT22;1528;52.550;13.408;2022-09-27T09:21:49;14.80;36.40
3037;DHT22;1528;52.550;13.408;2022-09-27T09:24:50;14.90;36.30
3037;DHT22;1528;52.550;13.408;2022-09-27T09:27:46;14.80;36.80
3037;DHT22;1528;52.550;13.408;2022-09-27T09:30:41;14.80;37.30
3037;DHT22;1528;52.550;13.408;2022-09-27T09:33:31;14.80;36.80
3037;DHT22;1528;52.550;13.408;2022-09-27T09:36:24;14.80;37.80
3037;DHT22;1528;52.550;13.408;2022-09-27T09:39:15;14.80;37.80
3037;DHT22;1528;52.550;13.408;2022-09-27T09:42:07;14.90;37.20
3037;DHT22;1528;52.550;13.408;2022-09-27T09:44:58;14.70;36.90
3037;DHT22;1528;52.550;13.408;2022-09-27T09:47:48;15.20;37.20
3037;DHT22;1528;52.550;13.408;2022-09-27T09:50:40;15.30;36.60
3037;DHT22;1528;52.550;13.408;2022-09-27T09:53:35;15.70;35.50
3037;DHT22;1528;52.550;13.408;2022-09-27T09:56:27;15.60;35.00
3037;DHT22;1528;52.550;13.408;2022-09-27T09:59:18;15.70;35.30
3037;DHT22;1528;52.550;13.408;2022-09-27T10:02:16;15.80;35.60
3037;DHT22;1528;52.550;13.408;2022-09-27T10:05:06;15.80;34.70
3037;DHT22;1528;52.550;13.408;2022-09-27T10:07:53;15.90;33.30
3037;DHT22;1528;52.550;13.408;2022-09-27T10:10:40;15.70;34.90
3037;DHT22;1528;52.550;13.408;2022-09-27T10:13:30;15.70;35.30
3037;DHT22;1528;52.550;13.408;2022-09-27T10:16:19;15.80;35.00
3037;DHT22;1528;52.550;13.408;2022-09-27T10:19:06;15.90;33.80
3037;DHT22;1528;52.550;13.408;2022-09-27T10:21:52;16.30;32.80
3037;DHT22;1528;52.550;13.408;2022-09-27T10:24:52;16.50;32.90
3037;DHT22;1528;52.550;13.408;2022-09-27T10:27:40;16.70;33.30
3037;DHT22;1528;52.550;13.408;2022-09-27T10:30:30;17.00;32.90
3037;DHT22;1528;52.550;13.408;2022-09-27T10:33:17;17.00;31.60
3037;DHT22;1528;52.550;13.408;2022-09-27T10:36:06;17.00;31.20
3037;DHT22;1528;52.550;13.408;2022-09-27T10:39:20;16.80;32.00
3037;DHT22;1528;52.550;13.408;2022-09-27T10:42:19;16.80;31.50
3037;DHT22;1528;52.550;13.408;2022-09-27T10:45:23;16.70;31.00
3037;DHT22;1528;52.550;13.408;2022-09-27T10:48:18;16.40;31.20
3037;DHT22;1528;52.550;13.408;2022-09-27T10:51:07;16.50;31.30
3037;DHT22;1528;52.550;13.408;2022-09-27T10:54:03;16.40;32.30
3037;DHT22;1528;52.550;13.408;2022-09-27T10:56:58;16.40;32.50
3037;DHT22;1528;52.550;13.408;2022-09-27T10:59:52;16.50;31.70
3037;DHT22;1528;52.550;13.408;2022-09-27T11:02:38;16.40;32.00
3037;DHT22;1528;52.550;13.408;2022-09-27T11:05:33;16.40;32.10
3037;DHT22;1528;52.550;13.408;2022-09-27T11:08:27;16.20;32.60
3037;DHT22;1528;52.550;13.408;2022-09-27T11:11:17;16.30;32.80
3037;DHT22;1528;52.550;13.408;2022-09-27T11:14:10;16.20;32.20
3037;DHT22;1528;52.550;13.408;2022-09-27T11:17:10;16.20;32.40
3037;DHT22;1528;52.550;13.408;2022-09-27T11:23:31;15.80;37.30
3037;DHT22;1528;52.550;13.408;2022-09-27T11:26:39;15.60;45.30
3037;DHT22;1528;52.550;13.408;2022-09-27T11:29:34;15.50;43.10
3037;DHT22;1528;52.550;13.408;2022-09-27T11:32:32;15.30;38.80
3037;DHT22;1528;52.550;13.408;2022-09-27T11:35:32;15.00;40.00
3037;DHT22;1528;52.550;13.408;2022-09-27T11:38:24;14.80;57.30
3037;DHT22;1528;52.550;13.408;2022-09-27T11:41:22;14.40;58.70
3037;DHT22;1528;52.550;13.408;2022-09-27T11:44:21;14.50;58.70
3037;DHT22;1528;52.550;13.408;2022-09-27T11:47:16;14.60;51.60
3037;DHT22;1528;52.550;13.408;2022-09-27T11:50:24;14.50;49.80
3037;DHT22;1528;52.550;13.408;2022-09-27T11:53:25;14.50;49.70
3037;DHT22;1528;52.550;13.408;2022-09-27T11:56:21;14.30;45.80
3037;DHT22;1528;52.550;13.408;2022-09-27T11:59:29;14.20;52.10
3037;DHT22;1528;52.550;13.408;2022-09-27T12:02:37;12.50;98.80
3037;DHT22;1528;52.550;13.408;2022-09-27T12:05:33;11.80;99.90
3037;DHT22;1528;52.550;13.408;2022-09-27T12:08:32;11.40;99.90
3037;DHT22;1528;52.550;13.408;2022-09-27T12:11:22;11.20;99.90
3037;DHT22;1528;52.550;13.408;2022-09-27T12:14:15;11.10;99.90
3037;DHT22;1528;52.550;13.408;2022-09-27T12:17:05;11.10;99.90
3037;DHT22;1528;52.550;13.408;2022-09-27T12:19:54;11.00;99.90
3037;DHT22;1528;52.550;13.408;2022-09-27T12:22:51;10.90;99.90
3037;DHT22;1528;52.550;13.408;2022-09-27T12:25:40;11.10;99.90
3037;DHT22;1528;52.550;13.408;2022-09-27T12:28:33;11.20;99.90
3037;DHT22;1528;52.550;13.408;2022-09-27T12:31:22;11.20;99.90
3037;DHT22;1528;52.550;13.408;2022-09-27T12:34:14;11.50;99.90
3037;DHT22;1528;52.550;13.408;2022-09-27T12:37:04;11.40;99.90
3037;DHT22;1528;52.550;13.408;2022-09-27T12:39:55;11.40;99.90
3037;DHT22;1528;52.550;13.408;2022-09-27T12:42:49;11.50;99.90
3037;DHT22;1528;52.550;13.408;2022-09-27T12:45:43;11.80;99.90
3037;DHT22;1528;52.550;13.408;2022-09-27T12:48:35;12.10;99.90
3037;DHT22;1528;52.550;13.408;2022-09-27T12:51:30;12.60;99.90
3037;DHT22;1528;52.550;13.408;2022-09-27T12:54:35;12.90;99.90
3037;DHT22;1528;52.550;13.408;2022-09-27T12:57:35;12.70;99.90
3037;DHT22;1528;52.550;13.408;2022-09-27T13:00:30;12.90;99.90
3037;DHT22;1528;52.550;13.408;2022-09-27T13:03:30;12.80;99.90
3037;DHT22;1528;52.550;13.408;2022-09-27T13:06:38;12.70;99.90
3037;DHT22;1528;52.550;13.408;2022-09-27T13:09:49;12.70;99.90
3037;DHT22;1528;52.550;13.408;2022-09-27T13:12:47;12.20;99.90
3037;DHT22;1528;52.550;13.408;2022-09-27T13:15:36;12.60;99.90
3037;DHT22;1528;52.550;13.408;2022-09-27T13:18:31;12.90;99.90
3037;DHT22;1528;52.550;13.408;2022-09-27T13:21:54;13.10;99.90
3037;DHT22;1528;52.550;13.408;2022-09-27T13:24:42;12.90;99.90
3037;DHT22;1528;52.550;13.408;2022-09-27T13:27:40;12.90;99.90
3037;DHT22;1528;52.550;13.408;2022-09-27T13:30:45;13.30;99.90
3037;DHT22;1528;52.550;13.408;2022-09-27T13:36:25;13.00;99.90
3037;DHT22;1528;52.550;13.408;2022-09-27T13:39:18;13.00;99.90
3037;DHT22;1528;52.550;13.408;2022-09-27T13:42:15;12.90;99.90
3037;DHT22;1528;52.550;13.408;2022-09-27T13:45:17;12.60;99.90
3037;DHT22;1528;52.550;13.408;2022-09-27T13:48:13;12.60;99.90
3037;DHT22;1528;52.550;13.408;2022-09-27T13:51:02;12.70;99.90
3037;DHT22;1528;52.550;13.408;2022-09-27T13:53:57;12.40;99.90
3037;DHT22;1528;52.550;13.408;2022-09-27T13:56:51;12.60;99.90
3037;DHT22;1528;52.550;13.408;2022-09-27T13:59:40;12.70;99.90
3037;DHT22;1528;52.550;13.408;2022-09-27T14:02:30;12.80;99.90
3037;DHT22;1528;52.550;13.408;2022-09-27T14:05:22;12.90;99.90
3037;DHT22;1528;52.550;13.408;2022-09-27T14:08:16;12.90;99.90
3037;DHT22;1528;52.550;13.408;2022-09-27T14:11:09;13.00;99.90
3037;DHT22;1528;52.550;13.408;2022-09-27T14:13:57;13.10;99.90
3037;DHT22;1528;52.550;13.408;2022-09-27T14:16:45;13.30;99.90
3037;DHT22;1528;52.550;13.408;2022-09-27T14:19:30;13.10;99.90
3037;DHT22;1528;52.550;13.408;2022-09-27T14:22:19;13.10;99.90
3037;DHT22;1528;52.550;13.408;2022-09-27T14:25:15;13.00;99.90
3037;DHT22;1528;52.550;13.408;2022-09-27T14:28:15;13.20;99.90
3037;DHT22;1528;52.550;13.408;2022-09-27T14:31:09;13.40;99.90
3037;DHT22;1528;52.550;13.408;2022-09-27T14:34:05;13.60;99.90
3037;DHT22;1528;52.550;13.408;2022-09-27T14:36:51;13.70;99.90
3037;DHT22;1528;52.550;13.408;2022-09-27T14:40:04;13.90;99.20
3037;DHT22;1528;52.550;13.408;2022-09-27T14:42:53;13.90;93.50
3037;DHT22;1528;52.550;13.408;2022-09-27T14:45:39;14.00;93.20
3037;DHT22;1528;52.550;13.408;2022-09-27T14:48:27;13.90;91.50
3037;DHT22;1528;52.550;13.408;2022-09-27T14:51:18;14.10;90.40
3037;DHT22;1528;52.550;13.408;2022-09-27T14:54:04;14.10;84.40
3037;DHT22;1528;52.550;13.408;2022-09-27T14:56:56;14.00;84.30
3037;DHT22;1528;52.550;13.408;2022-09-27T14:59:43;13.90;84.60
3037;DHT22;1528;52.550;13.408;2022-09-27T15:02:30;14.00;83.70
3037;DHT22;1528;52.550;13.408;2022-09-27T15:05:18;14.20;78.90
3037;DHT22;1528;52.550;13.408;2022-09-27T15:08:05;15.20;72.60
3037;DHT22;1528;52.550;13.408;2022-09-27T15:10:51;15.40;55.60
3037;DHT22;1528;52.550;13.408;2022-09-27T15:13:39;15.40;48.40
3037;DHT22;1528;52.550;13.408;2022-09-27T15:16:25;15.00;47.50
3037;DHT22;1528;52.550;13.408;2022-09-27T15:19:14;14.70;47.20
3037;DHT22;1528;52.550;13.408;2022-09-27T15:22:21;14.40;50.30
3037;DHT22;1528;52.550;13.408;2022-09-27T15:25:19;14.20;48.60
3037;DHT22;1528;52.550;13.408;2022-09-27T15:28:15;14.10;48.50
3037;DHT22;1528;52.550;13.408;2022-09-27T15:31:02;13.90;48.80
3037;DHT22;1528;52.550;13.408;2022-09-27T15:33:53;13.80;48.50
3037;DHT22;1528;52.550;13.408;2022-09-27T15:36:51;13.70;48.40
3037;DHT22;1528;52.550;13.408;2022-09-27T15:39:38;13.70;49.40
3037;DHT22;1528;52.550;13.408;2022-09-27T15:42:24;13.50;50.00
3037;DHT22;1528;52.550;13.408;2022-09-27T15:45:27;13.50;50.40
3037;DHT22;1528;52.550;13.408;2022-09-27T15:48:16;13.50;49.60
3037;DHT22;1528;52.550;13.408;2022-09-27T15:51:02;13.50;50.70
3037;DHT22;1528;52.550;13.408;2022-09-27T15:53:48;13.60;49.90
3037;DHT22;1528;52.550;13.408;2022-09-27T15:56:33;13.50;50.40
3037;DHT22;1528;52.550;13.408;2022-09-27T15:59:21;13.40;49.90
3037;DHT22;1528;52.550;13.408;2022-09-27T16:02:11;13.50;49.20
3037;DHT22;1528;52.550;13.408;2022-09-27T16:05:00;13.50;49.30
3037;DHT22;1528;52.550;13.408;2022-09-27T16:07:45;13.40;50.60
3037;DHT22;1528;52.550;13.408;2022-09-27T16:10:35;12.80;99.90
3037;DHT22;1528;52.550;13.408;2022-09-27T16:13:22;11.70;99.90
3037;DHT22;1528;52.550;13.408;2022-09-27T16:16:15;11.20;99.90
3037;DHT22;1528;52.550;13.408;2022-09-27T16:19:01;11.10;99.90
3037;DHT22;1528;52.550;13.408;2022-09-27T16:21:48;11.00;99.90
3037;DHT22;1528;52.550;13.408;2022-09-27T16:24:34;11.00;99.90
3037;DHT22;1528;52.550;13.408;2022-09-27T16:27:22;10.70;99.90
3037;DHT22;1528;52.550;13.408;2022-09-27T16:30:08;10.80;99.90
3037;DHT22;1528;52.550;13.408;2022-09-27T16:32:55;10.80;99.90
3037;DHT22;1528;52.550;13.408;2022-09-27T16:35:41;10.80;99.90
3037;DHT22;1528;52.550;13.408;2022-09-27T16:38:29;10.90;99.90
3037;DHT22;1528;52.550;13.408;2022-09-27T16:41:14;10.90;99.90
3037;DHT22;1528;52.550;13.408;2022-09-27T16:44:05;10.90;99.90
3037;DHT22;1528;52.550;13.408;2022-09-27T16:46:50;10.80;99.90
3037;DHT22;1528;52.550;13.408;2022-09-27T16:49:36;10.80;99.90
3037;DHT22;1528;52.550;13.408;2022-09-27T16:52:39;10.80;99.90
3037;DHT22;1528;52.550;13.408;2022-09-27T16:55:27;10.90;99.90
3037;DHT22;1528;52.550;13.408;2022-09-27T16:58:13;10.90;99.90
3037;DHT22;1528;52.550;13.408;2022-09-27T17:00:58;10.90;99.90
3037;DHT22;1528;52.550;13.408;2022-09-27T17:03:48;10.90;99.90
3037;DHT22;1528;52.550;13.408;2022-09-27T17:06:34;10.90;99.90
3037;DHT22;1528;52.550;13.408;2022-09-27T17:09:19;10.90;99.90
3037;DHT22;1528;52.550;13.408;2022-09-27T17:12:06;11.00;99.90
3037;DHT22;1528;52.550;13.408;2022-09-27T17:14:52;10.90;99.90
3037;DHT22;1528;52.550;13.408;2022-09-27T17:17:37;10.80;99.90
3037;DHT22;1528;52.550;13.408;2022-09-27T17:20:23;10.80;99.90
3037;DHT22;1528;52.550;13.408;2022-09-27T17:23:09;10.80;99.90
3037;DHT22;1528;52.550;13.408;2022-09-27T17:25:59;10.70;99.90
3037;DHT22;1528;52.550;13.408;2022-09-27T17:28:47;10.80;99.90
3037;DHT22;1528;52.550;13.408;2022-09-27T17:31:33;10.90;99.90
3037;DHT22;1528;52.550;13.408;2022-09-27T17:34:18;10.90;99.90
3037;DHT22;1528;52.550;13.408;2022-09-27T17:37:03;10.90;99.90
3037;DHT22;1528;52.550;13.408;2022-09-27T17:39:49;11.00;99.90
3037;DHT22;1528;52.550;13.408;2022-09-27T17:42:34;11.00;99.90
3037;DHT22;1528;52.550;13.408;2022-09-27T17:45:21;11.00;99.90
3037;DHT22;1528;52.550;13.408;2022-09-27T17:48:07;10.90;99.90
3037;DHT22;1528;52.550;13.408;2022-09-27T17:51:11;10.90;99.90
3037;DHT22;1528;52.550;13.408;2022-09-27T17:53:57;10.90;99.90
3037;DHT22;1528;52.550;13.408;2022-09-27T17:56:43;10.90;99.90
3037;DHT22;1528;52.550;13.408;2022-09-27T17:59:29;10.90;99.90
3037;DHT22;1528;52.550;13.408;2022-09-27T18:02:16;11.00;99.90
3037;DHT22;1528;52.550;13.408;2022-09-27T18:05:01;11.00;99.90
3037;DHT22;1528;52.550;13.408;2022-09-27T18:07:47;11.10;99.90
3037;DHT22;1528;52.550;13.408;2022-09-27T18:10:32;11.10;99.90
3037;DHT22;1528;52.550;13.408;2022-09-27T18:13:18;11.10;99.90
3037;DHT22;1528;52.550;13.408;2022-09-27T18:16:06;11.40;99.90
3037;DHT22;1528;52.550;13.408;2022-09-27T18:18:53;11.00;99.40